This is the latest recevied weather packets stored in our database for station/object KB1JL-13. If no packets are shown the sender has not sent any weather packets the latest 1 day(s).
| Time | Temp. | Humidity | Pressure | Rain* | Wind** | Luminosity | Snow |
|---|---|---|---|---|---|---|---|
| 1778038128 | 16.67° C | 80% | 1023 hPa | 0 mm | 1.34 m/s, 211° | 0 W/m² | - |
| 1778037825 | 16.67° C | 79% | 1022.6 hPa | 0 mm | 0.45 m/s, 188° | 0 W/m² | - |
| 1778037522 | 16.67° C | 79% | 1023 hPa | 0 mm | 0.89 m/s, 212° | 0 W/m² | - |
| 1778037219 | 16.67° C | 78% | 1022.6 hPa | 0 mm | 0.45 m/s, 218° | 0 W/m² | - |
| 1778036917 | 16.67° C | 77% | 1023 hPa | 0 mm | 0 m/s | 0 W/m² | - |
| 1778036615 | 16.67° C | 77% | 1022.6 hPa | 0 mm | 1.79 m/s, 199° | 0 W/m² | - |
| 1778036311 | 16.67° C | 76% | 1022.6 hPa | 0 mm | 0 m/s | 0 W/m² | - |
| 1778036007 | 16.67° C | 76% | 1022.6 hPa | 0 mm | 0.45 m/s, 190° | 0 W/m² | - |
| 1778035705 | 16.67° C | 75% | 1022.6 hPa | 0 mm | 2.24 m/s, 190° | 0 W/m² | - |
| 1778035402 | 16.67° C | 76% | 1022.6 hPa | 0 mm | 0 m/s | 0 W/m² | - |
| 1778035098 | 17.22° C | 75% | 1022.6 hPa | 0 mm | 5.36 m/s, 214° | 0 W/m² | - |
| 1778034795 | 17.22° C | 75% | 1022.6 hPa | 0 mm | 1.34 m/s, 185° | 0 W/m² | - |
| 1778034491 | 16.67° C | 75% | 1022.6 hPa | 0 mm | 0.45 m/s, 182° | 0 W/m² | - |
| 1778034189 | 16.67° C | 75% | 1022.6 hPa | 0 mm | 0 m/s | 0 W/m² | - |
| 1778033887 | 16.67° C | 75% | 1022.6 hPa | 0 mm | 1.34 m/s, 169° | 0 W/m² | - |
| 1778033584 | 16.67° C | 75% | 1022.6 hPa | 0 mm | 0 m/s | 0 W/m² | - |
| 1778033280 | 16.67° C | 75% | 1022.6 hPa | 0 mm | 0 m/s | 0 W/m² | - |
| 1778032978 | 16.67° C | 75% | 1022.6 hPa | 0 mm | 0 m/s | 0 W/m² | - |
| 1778032676 | 16.67° C | 75% | 1022.2 hPa | 0 mm | 1.34 m/s, 180° | 0 W/m² | - |
| 1778032374 | 16.67° C | 75% | 1022.6 hPa | 0 mm | 0 m/s | 0 W/m² | - |
| 1778032070 | 16.67° C | 75% | 1022.6 hPa | 0 mm | 0 m/s | 0 W/m² | - |
| 1778031766 | 16.67° C | 75% | 1022.6 hPa | 0 mm | 1.34 m/s, 179° | 0 W/m² | - |
| 1778031463 | 16.67° C | 75% | 1022.6 hPa | 0 mm | 0.89 m/s, 161° | 0 W/m² | - |
| 1778031161 | 16.67° C | 74% | 1022.2 hPa | 0 mm | 0 m/s | 0 W/m² | - |
| 1778030857 | 16.67° C | 74% | 1022.2 hPa | 0 mm | 0 m/s | 0 W/m² | - |
* Rain latest hour (hover to see other rain measurements)
** Current wind speed in m/s (hover to see current wind gust speed)